Karmel — 9HA2896 — position and weather

sailwx.info

Track history (hours):
 
Tides and Currents Weather Stations Pressure Air Temp Water Temp Dewpoint Dewpoint Depression Visibility Wind Speed Wind Dir Waves Ship Positions

Karmel

Last reported at 2014-Aug-21 14:32 UTC. Time now 2014-Aug-23 13:26 UTC.
Position N 57°27' E 017°48'.

Length 90 m; draft 5.5 m.

Type: Cargo ship. MMSI: 256632000.

Date/timePositionNaut miles runAvg speedWind from/ knotsBaromVisibWave heightAir tempDewpointWater temp
2014-Aug-21 14:32N 57°27' E 017°48'1010.6
2014-Aug-21 13:33N 57°17' E 017°40'1110.8
2014-Aug-21 12:33N 57°07' E 017°33'8210.2
2014-Aug-21 04:31N 55°56' E 016°20'2110.3
2014-Aug-21 02:27N 55°45' E 015°48'3210.2
2014-Aug-20 23:22N 55°30' E 014°59'910.2
2014-Aug-20 22:26N 55°25' E 014°44'9 9.6
2014-Aug-20 21:33N 55°19' E 014°34'12 9.5
2014-Aug-20 20:17N 55°09' E 014°21'25 8.7
2014-Aug-20 17:25N 54°56' E 013°45'910.4
2014-Aug-20 16:33N 54°53' E 013°30'4210.6
2014-Aug-20 12:33N 54°35' E 012°24'1111.1
2014-Aug-20 11:33N 54°26' E 012°12'1111.2
2014-Aug-20 10:33N 54°24' E 011°53'80 7.7
2014-Aug-20 00:08N 54°14' E 009°36'5 8.1
2014-Aug-19 23:31N 54°11' E 009°30'7 7.7
2014-Aug-19 22:33N 54°06' E 009°20'8 8.3
2014-Aug-19 21:33N 53°59' E 009°16'3 3.1
2014-Aug-19 20:34N 53°56' E 009°13'2 1.8
2014-Aug-19 19:34N 53°55' E 009°11'0 0.0
2014-Aug-19 18:34N 53°55' E 009°11'0 0.0
2014-Aug-19 17:34N 53°55' E 009°11'2 1.7
2014-Aug-19 16:34N 53°54' E 009°09'0 0.0
2014-Aug-19 15:34N 53°54' E 009°09'4 4.1
2014-Aug-19 14:34N 53°52' E 009°02'8 8.2
2014-Aug-19 13:33N 53°50' E 008°49'8 7.8
2014-Aug-19 12:33N 53°56' E 008°39'8 8.4
2014-Aug-19 11:33N 53°59' E 008°26'10 9.1
2014-Aug-19 10:25N 53°59' E 008°08'13 9.4
2014-Aug-19 09:05N 53°56' E 007°48'64 9.7
2014-Aug-19 02:30N 53°40' E 006°03'1010.3
2014-Aug-19 01:33N 53°37' E 005°48'1010.4
2014-Aug-19 00:33N 53°34' E 005°31'1110.7
2014-Aug-18 23:33N 53°31' E 005°14'1210.9
2014-Aug-18 22:29N 53°27' E 004°56'28 9.5
2014-Aug-18 19:33N 53°05' E 004°26'8 8.4
2014-Aug-18 18:33N 52°57' E 004°20'8 7.8
2014-Aug-18 17:33N 52°50' E 004°15'8 7.8
2014-Aug-18 16:33N 52°44' E 004°06'8 7.6
2014-Aug-18 15:32N 52°39' E 003°57'80 8.9
2014-Aug-18 06:32N 51°40' E 002°30'1110.9
2014-Aug-18 05:33N 51°31' E 002°19'1210.7
2014-Aug-18 04:24N 51°21' E 002°09'910.5
2014-Aug-18 03:33N 51°13' E 002°01'1010.4
2014-Aug-18 02:33N 51°07' E 001°48'69 8.6
2014-Aug-17 18:30N 50°24' E 000°23'  
Track history (hours):
 
Tides and Currents Weather Stations Pressure Air Temp Water Temp Dewpoint Dewpoint Depression Visibility Wind Speed Wind Dir Waves Ship Positions

Karmel

Last reported at 2014-Aug-21 14:32 UTC. Time now 2014-Aug-23 13:26 UTC.
Position N 57°27' E 017°48'.

Length 90 m; draft 5.5 m.

Type: Cargo ship. MMSI: 256632000.

Date/timePositionNaut miles runAvg speedWind from/ knotsBaromVisibWave heightAir tempDewpointWater temp
2014-Aug-21 14:32N 57°27' E 017°48'1010.6
2014-Aug-21 13:33N 57°17' E 017°40'1110.8
2014-Aug-21 12:33N 57°07' E 017°33'8210.2
2014-Aug-21 04:31N 55°56' E 016°20'2110.3
2014-Aug-21 02:27N 55°45' E 015°48'3210.2
2014-Aug-20 23:22N 55°30' E 014°59'910.2
2014-Aug-20 22:26N 55°25' E 014°44'9 9.6
2014-Aug-20 21:33N 55°19' E 014°34'12 9.5
2014-Aug-20 20:17N 55°09' E 014°21'25 8.7
2014-Aug-20 17:25N 54°56' E 013°45'910.4
2014-Aug-20 16:33N 54°53' E 013°30'4210.6
2014-Aug-20 12:33N 54°35' E 012°24'1111.1
2014-Aug-20 11:33N 54°26' E 012°12'1111.2
2014-Aug-20 10:33N 54°24' E 011°53'80 7.7
2014-Aug-20 00:08N 54°14' E 009°36'5 8.1
2014-Aug-19 23:31N 54°11' E 009°30'7 7.7
2014-Aug-19 22:33N 54°06' E 009°20'8 8.3
2014-Aug-19 21:33N 53°59' E 009°16'3 3.1
2014-Aug-19 20:34N 53°56' E 009°13'2 1.8
2014-Aug-19 19:34N 53°55' E 009°11'0 0.0
2014-Aug-19 18:34N 53°55' E 009°11'0 0.0
2014-Aug-19 17:34N 53°55' E 009°11'2 1.7
2014-Aug-19 16:34N 53°54' E 009°09'0 0.0
2014-Aug-19 15:34N 53°54' E 009°09'4 4.1
2014-Aug-19 14:34N 53°52' E 009°02'8 8.2
2014-Aug-19 13:33N 53°50' E 008°49'8 7.8
2014-Aug-19 12:33N 53°56' E 008°39'8 8.4
2014-Aug-19 11:33N 53°59' E 008°26'10 9.1
2014-Aug-19 10:25N 53°59' E 008°08'13 9.4
2014-Aug-19 09:05N 53°56' E 007°48'64 9.7
2014-Aug-19 02:30N 53°40' E 006°03'1010.3
2014-Aug-19 01:33N 53°37' E 005°48'1010.4
2014-Aug-19 00:33N 53°34' E 005°31'1110.7
2014-Aug-18 23:33N 53°31' E 005°14'1210.9
2014-Aug-18 22:29N 53°27' E 004°56'28 9.5
2014-Aug-18 19:33N 53°05' E 004°26'8 8.4
2014-Aug-18 18:33N 52°57' E 004°20'8 7.8
2014-Aug-18 17:33N 52°50' E 004°15'8 7.8
2014-Aug-18 16:33N 52°44' E 004°06'8 7.6
2014-Aug-18 15:32N 52°39' E 003°57'80 8.9
2014-Aug-18 06:32N 51°40' E 002°30'1110.9
2014-Aug-18 05:33N 51°31' E 002°19'1210.7
2014-Aug-18 04:24N 51°21' E 002°09'910.5
2014-Aug-18 03:33N 51°13' E 002°01'1010.4
2014-Aug-18 02:33N 51°07' E 001°48'69 8.6
2014-Aug-17 18:30N 50°24' E 000°23'  

Dump ship's entire track history